Time;durP1;ratioP1;P1;durP2;ratioP2;P2;SDS_P1;SDS_P2;PMS_P1;PMS_P2;Temp;Humidity;BMP_temperature;BMP_pressure;BME280_temperature;BME280_humidity;BME280_pressure;Samples;Min_cycle;Max_cycle;Signal;HPM_P1;HPM_P2
2021/12/28 00:01:09;;;;;;;54.47;26.25;;;;;;;;;;5027656;28;20028;-74
2021/12/28 00:03:36;;;;;;;49.75;25.35;;;;;;;;;;5015595;28;20044;-73
2021/12/28 00:06:03;;;;;;;47.60;26.35;;;;;;;;;;5025322;28;20048;-74
2021/12/28 00:08:29;;;;;;;54.67;27.83;;;;;;;;;;5013033;28;20025;-73
2021/12/28 00:10:57;;;;;;;51.90;25.70;;;;;;;;;;5026867;28;20022;-74
2021/12/28 00:13:24;;;;;;;57.30;27.00;;;;;;;;;;5015072;28;20105;-73
2021/12/28 00:16:12;;;;;;;50.47;27.80;;;;;;;;;;5026853;28;20044;-73
2021/12/28 00:18:36;;;;;;;53.30;26.88;;;;;;;;;;5024138;28;20037;-72
2021/12/28 00:21:04;;;;;;;50.40;25.80;;;;;;;;;;5017061;28;20034;-73
2021/12/28 00:23:36;;;;;;;49.45;26.58;;;;;;;;;;5026736;28;20029;-73
2021/12/28 00:26:02;;;;;;;52.90;25.90;;;;;;;;;;5011184;28;20476;-72
2021/12/28 00:28:28;;;;;;;68.57;26.63;;;;;;;;;;5022638;28;20048;-72
2021/12/28 00:30:54;;;;;;;54.58;25.45;;;;;;;;;;5016710;28;20036;-74
2021/12/28 00:33:21;;;;;;;56.13;27.63;;;;;;;;;;5011502;28;20034;-74
2021/12/28 00:35:47;;;;;;;50.67;26.08;;;;;;;;;;5017239;28;20033;-73
2021/12/28 00:38:16;;;;;;;55.00;29.08;;;;;;;;;;5023511;28;20030;-72
2021/12/28 00:40:42;;;;;;;53.30;25.65;;;;;;;;;;5011830;28;20030;-73
2021/12/28 00:43:08;;;;;;;48.95;25.17;;;;;;;;;;5027303;28;20142;-73
2021/12/28 00:45:35;;;;;;;51.90;25.27;;;;;;;;;;5015285;28;20032;-73
2021/12/28 00:48:01;;;;;;;49.22;24.83;;;;;;;;;;5024875;28;20037;-72
2021/12/28 00:50:27;;;;;;;47.63;23.90;;;;;;;;;;5012091;28;20022;-72
2021/12/28 00:52:55;;;;;;;50.10;24.40;;;;;;;;;;5010193;28;20471;-73
2021/12/28 00:55:21;;;;;;;49.70;26.30;;;;;;;;;;5010494;28;20030;-74
2021/12/28 00:57:48;;;;;;;50.35;25.25;;;;;;;;;;5010543;28;20026;-73
2021/12/28 01:00:19;;;;;;;53.47;26.02;;;;;;;;;;5020086;28;20499;-73
2021/12/28 01:02:45;;;;;;;53.72;24.90;;;;;;;;;;5017038;28;20060;-72
2021/12/28 01:05:12;;;;;;;53.92;25.95;;;;;;;;;;5012103;28;20026;-73
2021/12/28 01:07:37;;;;;;;47.13;24.35;;;;;;;;;;5014046;28;20014;-72
2021/12/28 01:10:05;;;;;;;49.15;24.95;;;;;;;;;;5024287;28;20036;-73
2021/12/28 01:12:31;;;;;;;51.83;25.83;;;;;;;;;;5011752;28;20045;-74
2021/12/28 01:14:57;;;;;;;45.92;24.58;;;;;;;;;;5025237;28;20562;-74
2021/12/28 01:17:23;;;;;;;46.28;23.30;;;;;;;;;;5014840;28;20100;-75
2021/12/28 01:19:49;;;;;;;48.47;26.05;;;;;;;;;;5026794;28;20041;-75
2021/12/28 01:22:15;;;;;;;52.88;26.30;;;;;;;;;;5011343;28;20033;-73
2021/12/28 01:24:41;;;;;;;43.17;23.63;;;;;;;;;;5023351;28;20033;-73
2021/12/28 01:27:07;;;;;;;52.92;26.80;;;;;;;;;;5014345;28;20593;-73
2021/12/28 01:29:33;;;;;;;50.90;26.10;;;;;;;;;;5011466;28;20029;-73
2021/12/28 01:32:00;;;;;;;46.47;24.63;;;;;;;;;;5017865;28;20033;-73
2021/12/28 01:34:26;;;;;;;48.50;24.75;;;;;;;;;;5019481;28;20438;-72
2021/12/28 01:36:52;;;;;;;52.90;26.08;;;;;;;;;;5012112;28;20034;-72
2021/12/28 01:39:18;;;;;;;52.35;24.52;;;;;;;;;;5018420;28;20472;-74
2021/12/28 01:41:44;;;;;;;49.88;26.40;;;;;;;;;;5031028;28;20030;-72
2021/12/28 01:44:11;;;;;;;47.05;24.63;;;;;;;;;;5011035;28;20557;-72
2021/12/28 01:46:38;;;;;;;51.15;24.88;;;;;;;;;;5023319;28;20472;-73
2021/12/28 01:49:05;;;;;;;49.38;25.00;;;;;;;;;;5029276;28;20051;-73
2021/12/28 01:51:32;;;;;;;50.58;25.20;;;;;;;;;;5014208;28;20476;-75
2021/12/28 01:53:58;;;;;;;42.40;22.90;;;;;;;;;;5028228;28;20105;-73
2021/12/28 01:56:37;;;;;;;47.90;24.33;;;;;;;;;;5015404;28;20046;-73
2021/12/28 01:59:03;;;;;;;51.35;23.42;;;;;;;;;;5013968;28;20041;-73
2021/12/28 02:01:29;;;;;;;49.65;25.90;;;;;;;;;;5013897;28;20026;-73
2021/12/28 02:03:55;;;;;;;47.63;24.45;;;;;;;;;;5020505;28;20416;-73
2021/12/28 02:06:25;;;;;;;46.80;24.35;;;;;;;;;;5026356;28;20036;-74
2021/12/28 02:08:51;;;;;;;50.13;25.65;;;;;;;;;;5017017;28;20384;-73
2021/12/28 02:11:17;;;;;;;51.88;26.50;;;;;;;;;;5032854;28;20108;-73
2021/12/28 02:13:43;;;;;;;51.15;26.20;;;;;;;;;;5015052;28;20080;-73
2021/12/28 02:16:09;;;;;;;47.45;25.92;;;;;;;;;;5013579;28;20107;-73
2021/12/28 02:18:36;;;;;;;51.58;26.73;;;;;;;;;;5026179;28;20423;-73
2021/12/28 02:21:04;;;;;;;42.42;24.30;;;;;;;;;;5019768;28;20081;-73
2021/12/28 02:23:30;;;;;;;52.53;26.67;;;;;;;;;;5029220;28;20674;-73
2021/12/28 02:25:56;;;;;;;52.63;25.85;;;;;;;;;;5019741;28;20483;-73
2021/12/28 02:28:22;;;;;;;55.08;27.23;;;;;;;;;;5025757;28;20061;-73
2021/12/28 02:30:50;;;;;;;45.78;26.05;;;;;;;;;;5016292;28;20030;-73
2021/12/28 02:33:17;;;;;;;50.50;26.58;;;;;;;;;;5032137;28;20128;-74
2021/12/28 02:35:43;;;;;;;49.42;27.08;;;;;;;;;;5020472;28;20552;-73
2021/12/28 02:38:11;;;;;;;53.67;27.38;;;;;;;;;;5028264;28;20033;-73
2021/12/28 02:40:37;;;;;;;50.53;25.00;;;;;;;;;;5025902;28;20029;-73
2021/12/28 02:43:04;;;;;;;56.75;27.88;;;;;;;;;;5017253;28;20025;-73
2021/12/28 02:45:32;;;;;;;50.40;25.50;;;;;;;;;;5030470;28;20026;-73
2021/12/28 02:47:59;;;;;;;47.28;25.55;;;;;;;;;;5014263;28;20052;-73
2021/12/28 02:50:28;;;;;;;50.70;25.10;;;;;;;;;;5023745;28;20021;-75
2021/12/28 02:52:55;;;;;;;53.95;27.33;;;;;;;;;;5013429;28;20032;-73
2021/12/28 02:55:22;;;;;;;53.75;27.92;;;;;;;;;;5030119;28;20025;-73
2021/12/28 02:57:52;;;;;;;50.42;24.95;;;;;;;;;;5017687;28;20027;-73
2021/12/28 03:00:32;;;;;;;39.83;20.00;;;;;;;;;;5024587;28;20028;-74
2021/12/28 03:02:58;;;;;;;54.67;25.52;;;;;;;;;;5013375;28;20053;-74
2021/12/28 03:05:24;;;;;;;53.67;25.48;;;;;;;;;;5030108;28;20032;-74
2021/12/28 03:07:50;;;;;;;53.45;26.98;;;;;;;;;;5014130;28;20439;-74
2021/12/28 03:10:16;;;;;;;49.97;25.35;;;;;;;;;;5022810;28;20021;-73
2021/12/28 03:12:42;;;;;;;53.22;26.70;;;;;;;;;;5020853;28;20478;-74
2021/12/28 03:15:08;;;;;;;50.75;25.85;;;;;;;;;;5012967;28;20092;-74
2021/12/28 03:17:34;;;;;;;51.15;26.23;;;;;;;;;;5029822;28;20029;-74
2021/12/28 03:20:00;;;;;;;48.25;25.05;;;;;;;;;;5013811;28;20026;-74
2021/12/28 03:22:26;;;;;;;54.55;26.90;;;;;;;;;;5012457;28;20392;-74
2021/12/28 03:24:52;;;;;;;51.15;25.27;;;;;;;;;;5026739;28;20018;-74
2021/12/28 03:27:18;;;;;;;53.40;25.73;;;;;;;;;;5016414;28;20368;-75
2021/12/28 03:29:44;;;;;;;53.97;25.13;;;;;;;;;;5027703;28;20530;-73
2021/12/28 03:32:10;;;;;;;48.28;23.42;;;;;;;;;;5020092;28;20030;-73
2021/12/28 03:34:36;;;;;;;49.72;25.02;;;;;;;;;;5021009;28;20032;-73
2021/12/28 03:37:02;;;;;;;59.85;28.30;;;;;;;;;;5013308;28;20029;-73
2021/12/28 03:39:28;;;;;;;59.80;27.05;;;;;;;;;;5029406;28;20026;-73
2021/12/28 03:41:54;;;;;;;61.15;27.98;;;;;;;;;;5013018;28;20025;-73
2021/12/28 03:44:20;;;;;;;60.88;28.90;;;;;;;;;;5022133;28;20498;-73
2021/12/28 03:46:46;;;;;;;61.05;29.75;;;;;;;;;;5020211;28;20018;-72
2021/12/28 03:49:12;;;;;;;58.95;28.58;;;;;;;;;;5013038;28;20483;-72
2021/12/28 03:51:38;;;;;;;61.88;29.17;;;;;;;;;;5011847;28;20026;-72
2021/12/28 03:54:04;;;;;;;64.80;29.33;;;;;;;;;;5011061;28;20436;-73
2021/12/28 03:56:30;;;;;;;65.85;29.95;;;;;;;;;;5023403;28;20495;-72
2021/12/28 03:58:56;;;;;;;62.08;29.30;;;;;;;;;;5018421;28;20034;-72
2021/12/28 04:01:23;;;;;;;63.83;30.67;;;;;;;;;;5011746;28;20037;-72
2021/12/28 04:03:50;;;;;;;66.63;31.10;;;;;;;;;;5017320;28;20478;-74
2021/12/28 04:06:18;;;;;;;70.82;30.08;;;;;;;;;;5023627;28;20033;-73
2021/12/28 04:08:45;;;;;;;61.95;29.65;;;;;;;;;;5013151;28;20026;-72
2021/12/28 04:13:48;;;;;;;62.63;30.65;;;;;;;;;;5002128;28;20167;-73
2021/12/28 04:16:14;;;;;;;59.15;28.70;;;;;;;;;;5023413;28;20633;-72
2021/12/28 04:18:40;;;;;;;65.78;31.25;;;;;;;;;;5012444;28;20121;-72
2021/12/28 04:21:13;;;;;;;66.97;31.00;;;;;;;;;;5147300;27;20773;-72
2021/12/28 04:23:39;;;;;;;60.25;30.60;;;;;;;;;;5132611;27;20537;-72
2021/12/28 04:26:05;;;;;;;59.30;29.10;;;;;;;;;;5142604;27;20035;-72
2021/12/28 04:28:32;;;;;;;60.67;31.73;;;;;;;;;;5139729;27;20110;-72
2021/12/28 04:30:58;;;;;;;58.55;29.13;;;;;;;;;;5119770;27;20023;-72
2021/12/28 04:33:24;;;;;;;62.80;29.33;;;;;;;;;;5119508;22;20406;-69
2021/12/28 04:35:50;;;;;;;59.35;29.58;;;;;;;;;;5066965;28;20075;-69
2021/12/28 04:38:16;;;;;;;60.88;29.58;;;;;;;;;;5068483;28;20025;-71
2021/12/28 04:40:42;;;;;;;59.05;28.30;;;;;;;;;;5055948;28;20029;-71
2021/12/28 04:43:08;;;;;;;60.25;30.45;;;;;;;;;;5064450;28;20052;-71
2021/12/28 04:45:36;;;;;;;54.75;26.38;;;;;;;;;;5066001;28;20071;-71
2021/12/28 04:48:03;;;;;;;56.65;27.42;;;;;;;;;;5054280;28;20068;-70
2021/12/28 04:50:29;;;;;;;61.70;29.52;;;;;;;;;;5057588;28;20029;-70
2021/12/28 04:52:58;;;;;;;62.78;30.58;;;;;;;;;;5061854;28;20671;-70
2021/12/28 04:55:24;;;;;;;66.63;31.35;;;;;;;;;;5051086;28;20390;-70
2021/12/28 04:57:50;;;;;;;66.85;33.30;;;;;;;;;;5062771;28;20094;-70
2021/12/28 05:00:18;;;;;;;67.30;32.80;;;;;;;;;;5056732;28;20024;-71
2021/12/28 05:02:43;;;;;;;71.05;34.30;;;;;;;;;;5054976;28;20021;-70
2021/12/28 05:05:10;;;;;;;67.35;33.08;;;;;;;;;;5063930;28;20542;-69
2021/12/28 05:07:36;;;;;;;69.68;33.20;;;;;;;;;;5051001;28;20394;-71
2021/12/28 05:10:03;;;;;;;68.07;33.03;;;;;;;;;;5060653;28;20049;-70
2021/12/28 05:12:29;;;;;;;65.47;32.42;;;;;;;;;;5058392;28;20486;-69
2021/12/28 05:14:58;;;;;;;70.68;33.22;;;;;;;;;;5052615;28;20083;-69
2021/12/28 05:17:24;;;;;;;68.03;34.72;;;;;;;;;;5063955;28;20508;-70
2021/12/28 05:19:50;;;;;;;75.13;35.10;;;;;;;;;;5052986;28;20024;-70
2021/12/28 05:22:16;;;;;;;65.35;33.17;;;;;;;;;;5058453;28;20040;-69
2021/12/28 05:24:42;;;;;;;65.15;31.27;;;;;;;;;;5059188;28;20021;-71
2021/12/28 05:27:08;;;;;;;64.80;30.92;;;;;;;;;;5051518;28;20556;-69
2021/12/28 05:29:34;;;;;;;71.68;34.10;;;;;;;;;;5063859;28;20017;-70
2021/12/28 05:32:00;;;;;;;70.68;32.53;;;;;;;;;;5044695;28;20021;-70
2021/12/28 05:34:26;;;;;;;73.72;33.22;;;;;;;;;;5042943;28;20121;-71
2021/12/28 05:36:52;;;;;;;69.78;32.33;;;;;;;;;;5048067;28;20458;-69
2021/12/28 05:39:18;;;;;;;63.78;31.17;;;;;;;;;;5037579;28;20108;-70
2021/12/28 05:41:44;;;;;;;71.63;33.33;;;;;;;;;;5052261;28;20053;-70
2021/12/28 05:44:10;;;;;;;63.88;31.65;;;;;;;;;;5053591;28;20029;-70
2021/12/28 05:46:36;;;;;;;63.53;30.45;;;;;;;;;;5042294;28;20028;-70
2021/12/28 05:49:03;;;;;;;64.07;29.48;;;;;;;;;;5049172;28;20029;-70
2021/12/28 05:51:28;;;;;;;56.20;27.25;;;;;;;;;;5037001;28;20111;-70
2021/12/28 05:53:54;;;;;;;63.55;28.55;;;;;;;;;;5046931;28;20080;-69
2021/12/28 05:56:20;;;;;;;61.72;29.77;;;;;;;;;;5043276;28;20104;-69
2021/12/28 05:58:46;;;;;;;61.55;28.35;;;;;;;;;;5056009;28;20021;-70
2021/12/28 06:01:13;;;;;;;62.88;30.15;;;;;;;;;;5050045;28;20060;-69
2021/12/28 06:03:39;;;;;;;58.22;27.40;;;;;;;;;;5036473;28;20049;-69
2021/12/28 06:06:05;;;;;;;60.17;26.27;;;;;;;;;;5046251;28;20371;-70
2021/12/28 06:08:31;;;;;;;61.60;25.92;;;;;;;;;;5044465;28;20083;-70
2021/12/28 06:10:57;;;;;;;58.15;27.40;;;;;;;;;;5039015;28;20029;-70
2021/12/28 06:13:23;;;;;;;56.78;26.50;;;;;;;;;;5049003;28;20459;-70
2021/12/28 06:15:50;;;;;;;59.17;26.33;;;;;;;;;;5038461;28;20116;-70
2021/12/28 06:18:16;;;;;;;54.03;24.67;;;;;;;;;;5044677;28;20397;-70
2021/12/28 06:20:42;;;;;;;52.15;24.45;;;;;;;;;;5044279;28;20029;-69
2021/12/28 06:23:08;;;;;;;46.22;22.77;;;;;;;;;;5036363;28;20193;-71
2021/12/28 06:25:34;;;;;;;50.90;24.42;;;;;;;;;;5049654;28;20048;-70
2021/12/28 06:28:00;;;;;;;56.47;24.48;;;;;;;;;;5040005;28;20021;-70
2021/12/28 06:30:26;;;;;;;55.72;24.33;;;;;;;;;;5042204;28;20030;-68
2021/12/28 06:32:52;;;;;;;49.22;22.38;;;;;;;;;;5051283;28;20483;-70
2021/12/28 06:35:18;;;;;;;49.38;23.27;;;;;;;;;;5051663;28;20509;-69
2021/12/28 06:37:44;;;;;;;48.83;22.10;;;;;;;;;;5037502;28;20051;-68
2021/12/28 06:40:11;;;;;;;49.00;22.40;;;;;;;;;;5044581;28;20115;-70
2021/12/28 06:42:37;;;;;;;44.80;22.15;;;;;;;;;;5034227;28;20036;-70
2021/12/28 06:45:04;;;;;;;51.47;21.95;;;;;;;;;;5047695;28;20017;-69
2021/12/28 06:47:30;;;;;;;48.13;21.83;;;;;;;;;;5035853;28;20524;-71
2021/12/28 06:49:56;;;;;;;48.05;22.13;;;;;;;;;;5046339;28;20032;-68
2021/12/28 06:52:22;;;;;;;44.83;21.77;;;;;;;;;;5042168;28;20036;-70
2021/12/28 06:54:48;;;;;;;46.67;21.35;;;;;;;;;;5054281;28;20037;-71
2021/12/28 06:57:14;;;;;;;47.55;22.67;;;;;;;;;;5049723;28;20031;-70
2021/12/28 06:59:45;;;;;;;43.28;21.50;;;;;;;;;;5037140;28;20159;-71
2021/12/28 07:02:12;;;;;;;43.25;21.92;;;;;;;;;;5045195;28;20026;-69
2021/12/28 07:04:38;;;;;;;46.40;22.00;;;;;;;;;;5043359;28;20107;-70
2021/12/28 07:07:05;;;;;;;46.72;22.23;;;;;;;;;;5036887;28;20025;-70
2021/12/28 07:09:31;;;;;;;46.55;21.63;;;;;;;;;;5048524;28;20528;-70
2021/12/28 07:11:57;;;;;;;42.15;20.85;;;;;;;;;;5038757;28;20032;-70
2021/12/28 07:14:23;;;;;;;41.45;20.50;;;;;;;;;;5041600;28;20398;-70
2021/12/28 07:16:49;;;;;;;40.53;20.35;;;;;;;;;;5045139;28;20142;-70
2021/12/28 07:19:15;;;;;;;45.30;21.73;;;;;;;;;;5050575;28;20046;-70
2021/12/28 07:21:41;;;;;;;46.88;21.20;;;;;;;;;;5063311;28;20147;-70
2021/12/28 07:24:08;;;;;;;41.95;19.75;;;;;;;;;;5039022;28;20029;-70
2021/12/28 07:26:35;;;;;;;39.28;19.73;;;;;;;;;;5041006;28;20414;-70
2021/12/28 07:29:01;;;;;;;44.35;19.85;;;;;;;;;;5046874;28;20064;-70
2021/12/28 07:31:27;;;;;;;41.95;20.30;;;;;;;;;;5050394;28;20033;-70
2021/12/28 07:33:54;;;;;;;41.85;19.67;;;;;;;;;;5044939;28;20040;-71
2021/12/28 07:36:20;;;;;;;35.00;18.50;;;;;;;;;;5041155;28;20036;-72
2021/12/28 07:38:46;;;;;;;43.13;19.92;;;;;;;;;;5038730;28;20068;-70
2021/12/28 07:41:12;;;;;;;39.65;20.25;;;;;;;;;;5048307;28;20028;-70
2021/12/28 07:43:38;;;;;;;39.33;18.75;;;;;;;;;;5048467;28;20409;-70
2021/12/28 07:46:04;;;;;;;36.83;19.17;;;;;;;;;;5044364;28;20041;-70
2021/12/28 07:48:31;;;;;;;38.58;18.92;;;;;;;;;;5042279;28;20033;-70
2021/12/28 07:50:57;;;;;;;36.80;18.80;;;;;;;;;;5037592;28;20025;-71
2021/12/28 07:53:23;;;;;;;36.50;17.67;;;;;;;;;;5047999;28;20025;-70
2021/12/28 07:55:49;;;;;;;36.22;18.08;;;;;;;;;;5038859;28;20071;-71
2021/12/28 07:58:16;;;;;;;40.95;18.17;;;;;;;;;;5059901;28;20025;-71
2021/12/28 08:00:42;;;;;;;33.35;18.05;;;;;;;;;;5045915;28;20047;-71
2021/12/28 08:03:08;;;;;;;36.08;17.45;;;;;;;;;;5035176;28;20021;-70
2021/12/28 08:05:34;;;;;;;30.73;16.83;;;;;;;;;;5047905;28;20387;-71
2021/12/28 08:08:01;;;;;;;34.03;17.55;;;;;;;;;;5038220;28;20517;-70
2021/12/28 08:10:27;;;;;;;35.38;17.52;;;;;;;;;;5041071;28;20104;-70
2021/12/28 08:12:54;;;;;;;36.13;17.80;;;;;;;;;;5044710;28;20056;-69
2021/12/28 08:15:23;;;;;;;33.35;17.33;;;;;;;;;;5034317;28;20498;-70
2021/12/28 08:17:49;;;;;;;33.28;17.25;;;;;;;;;;5046252;28;20471;-68
2021/12/28 08:20:15;;;;;;;34.70;17.30;;;;;;;;;;5040166;28;20051;-70
2021/12/28 08:22:41;;;;;;;34.83;17.23;;;;;;;;;;5039105;28;20018;-71
2021/12/28 08:25:09;;;;;;;33.63;16.65;;;;;;;;;;5046027;28;20052;-70
2021/12/28 08:27:35;;;;;;;40.35;20.67;;;;;;;;;;5036103;28;20032;-71
2021/12/28 08:30:01;;;;;;;41.97;19.95;;;;;;;;;;5042601;28;20049;-69
2021/12/28 08:32:27;;;;;;;37.13;19.48;;;;;;;;;;5048413;28;20037;-67
2021/12/28 08:34:53;;;;;;;37.58;19.60;;;;;;;;;;5048258;28;20035;-70
2021/12/28 08:37:19;;;;;;;33.63;17.92;;;;;;;;;;5062778;28;20029;-68
2021/12/28 08:39:46;;;;;;;35.85;18.67;;;;;;;;;;5035325;28;20094;-69
2021/12/28 08:42:11;;;;;;;38.22;19.75;;;;;;;;;;5033200;28;20017;-68
2021/12/28 08:44:38;;;;;;;38.95;20.10;;;;;;;;;;5057228;28;20052;-70
2021/12/28 08:47:04;;;;;;;40.03;20.17;;;;;;;;;;5036003;28;20036;-68
2021/12/28 08:49:30;;;;;;;36.13;19.42;;;;;;;;;;5038634;28;20106;-68
2021/12/28 08:51:56;;;;;;;35.63;19.23;;;;;;;;;;5037447;28;20021;-70
2021/12/28 08:54:22;;;;;;;43.00;19.85;;;;;;;;;;5044375;28;20033;-69
2021/12/28 08:56:50;;;;;;;37.63;19.70;;;;;;;;;;5045623;28;20055;-69
2021/12/28 08:59:16;;;;;;;34.63;18.17;;;;;;;;;;5045705;28;20029;-70
2021/12/28 09:01:42;;;;;;;37.15;20.80;;;;;;;;;;5046569;28;20039;-69
2021/12/28 09:04:08;;;;;;;43.20;20.25;;;;;;;;;;5030599;28;20036;-66
2021/12/28 09:06:34;;;;;;;38.88;19.67;;;;;;;;;;5043994;28;20020;-67
2021/12/28 09:09:00;;;;;;;34.60;18.48;;;;;;;;;;5039476;28;20022;-69
2021/12/28 09:11:26;;;;;;;36.30;19.55;;;;;;;;;;5044395;28;20029;-69
2021/12/28 09:13:55;;;;;;;40.75;19.52;;;;;;;;;;5048193;28;20026;-70
2021/12/28 09:16:22;;;;;;;33.45;16.83;;;;;;;;;;5042591;28;20028;-68
2021/12/28 09:18:49;;;;;;;35.20;17.75;;;;;;;;;;5039833;28;20025;-67
2021/12/28 09:21:15;;;;;;;34.58;17.52;;;;;;;;;;5048827;28;20393;-68
2021/12/28 09:23:41;;;;;;;34.78;17.80;;;;;;;;;;5037451;28;20382;-67
2021/12/28 09:26:07;;;;;;;28.08;16.17;;;;;;;;;;5046677;28;20344;-69
2021/12/28 09:28:33;;;;;;;35.10;17.40;;;;;;;;;;5045339;28;20051;-69
2021/12/28 09:30:59;;;;;;;31.75;18.38;;;;;;;;;;5039062;28;20029;-67
2021/12/28 09:33:25;;;;;;;31.33;17.23;;;;;;;;;;5049642;28;20098;-68
2021/12/28 09:35:52;;;;;;;33.05;19.10;;;;;;;;;;5039683;28;20393;-68
2021/12/28 09:38:19;;;;;;;32.13;16.92;;;;;;;;;;5044952;28;20171;-69
2021/12/28 09:40:46;;;;;;;31.10;16.67;;;;;;;;;;5047252;28;20028;-71
2021/12/28 09:43:13;;;;;;;28.38;16.25;;;;;;;;;;5051030;28;20035;-72
2021/12/28 09:45:39;;;;;;;31.40;17.50;;;;;;;;;;5050249;28;20025;-71
2021/12/28 09:48:05;;;;;;;29.13;15.73;;;;;;;;;;5033923;28;20026;-69
2021/12/28 09:50:31;;;;;;;32.67;17.63;;;;;;;;;;5032724;28;20379;-69
2021/12/28 09:52:59;;;;;;;31.27;16.38;;;;;;;;;;5033093;28;20350;-68
2021/12/28 09:55:25;;;;;;;35.08;18.08;;;;;;;;;;5033831;28;20395;-68
2021/12/28 09:57:52;;;;;;;31.05;16.02;;;;;;;;;;5034493;28;20025;-68
2021/12/28 10:00:19;;;;;;;28.52;16.95;;;;;;;;;;5033212;28;20124;-68
2021/12/28 10:02:45;;;;;;;33.28;17.60;;;;;;;;;;5033773;28;20021;-67
2021/12/28 10:05:13;;;;;;;32.78;15.20;;;;;;;;;;5039715;28;20102;-69
2021/12/28 10:07:44;;;;;;;28.92;16.05;;;;;;;;;;5068730;28;20077;-68
2021/12/28 10:10:10;;;;;;;32.88;16.83;;;;;;;;;;5053242;28;20049;-70
2021/12/28 10:12:38;;;;;;;29.45;17.02;;;;;;;;;;5053281;28;20486;-68
2021/12/28 10:15:08;;;;;;;30.23;16.23;;;;;;;;;;5053112;28;20029;-69
2021/12/28 10:17:34;;;;;;;25.40;13.73;;;;;;;;;;5053776;28;20398;-69
2021/12/28 10:20:03;;;;;;;23.48;14.13;;;;;;;;;;5054100;28;20024;-68
2021/12/28 10:22:32;;;;;;;30.20;15.02;;;;;;;;;;5053403;28;20114;-69
2021/12/28 10:24:59;;;;;;;28.55;14.50;;;;;;;;;;5053195;28;20429;-68
2021/12/28 10:27:27;;;;;;;28.38;15.07;;;;;;;;;;5053385;28;20090;-68
2021/12/28 10:29:54;;;;;;;26.50;14.65;;;;;;;;;;5053219;28;20029;-68
2021/12/28 10:32:20;;;;;;;27.08;15.52;;;;;;;;;;5045329;28;20045;-67
2021/12/28 10:34:50;;;;;;;29.85;15.23;;;;;;;;;;5084069;22;20053;-69
2021/12/28 10:37:17;;;;;;;29.33;15.35;;;;;;;;;;5073031;28;20035;-69
2021/12/28 10:39:46;;;;;;;28.35;14.57;;;;;;;;;;5061783;28;20111;-69
2021/12/28 10:42:39;;;;;;;26.42;14.18;;;;;;;;;;5071588;28;20035;-69
2021/12/28 10:45:06;;;;;;;25.63;14.40;;;;;;;;;;5068846;28;20028;-69
2021/12/28 10:47:32;;;;;;;27.38;15.18;;;;;;;;;;5072414;28;20016;-69
2021/12/28 10:50:01;;;;;;;26.50;15.05;;;;;;;;;;5088122;28;20435;-69
2021/12/28 10:52:33;;;;;;;25.60;14.20;;;;;;;;;;5088319;28;20040;-69
2021/12/28 10:55:17;;;;;;;29.15;14.73;;;;;;;;;;5072848;28;20077;-69
2021/12/28 10:57:43;;;;;;;28.48;14.95;;;;;;;;;;5074098;28;20619;-70
2021/12/28 11:00:25;;;;;;;33.78;16.10;;;;;;;;;;5073106;28;20029;-70
2021/12/28 11:02:51;;;;;;;29.90;14.85;;;;;;;;;;5072626;28;20012;-70
2021/12/28 11:05:35;;;;;;;29.02;14.43;;;;;;;;;;5072354;28;20036;-70
2021/12/28 11:08:01;;;;;;;25.77;13.55;;;;;;;;;;5071159;28;20074;-70
2021/12/28 11:10:28;;;;;;;26.17;13.63;;;;;;;;;;5054688;28;20032;-70
2021/12/28 11:12:54;;;;;;;23.55;13.35;;;;;;;;;;5071725;28;20025;-70
2021/12/28 11:15:23;;;;;;;26.63;14.05;;;;;;;;;;5072568;28;20383;-70
2021/12/28 11:17:49;;;;;;;23.52;12.75;;;;;;;;;;5072663;28;20486;-71
2021/12/28 11:20:16;;;;;;;23.25;12.45;;;;;;;;;;5054588;28;20029;-70
2021/12/28 11:23:01;;;;;;;22.20;11.82;;;;;;;;;;5071940;28;20051;-70
2021/12/28 11:25:30;;;;;;;27.83;14.23;;;;;;;;;;5072071;28;20028;-70
2021/12/28 11:28:14;;;;;;;20.85;11.73;;;;;;;;;;5072390;28;20020;-70
2021/12/28 11:30:42;;;;;;;24.50;11.65;;;;;;;;;;5053739;28;20161;-70
2021/12/28 11:33:09;;;;;;;20.35;12.68;;;;;;;;;;5070019;28;20482;-70
2021/12/28 11:35:35;;;;;;;18.52;11.18;;;;;;;;;;5070760;28;20111;-70
2021/12/28 11:38:01;;;;;;;19.55;11.65;;;;;;;;;;5071131;28;20073;-70
2021/12/28 11:40:27;;;;;;;20.95;12.15;;;;;;;;;;5040111;28;20036;-70
2021/12/28 11:42:54;;;;;;;23.88;12.70;;;;;;;;;;5071176;28;20074;-70
2021/12/28 11:45:20;;;;;;;25.67;13.15;;;;;;;;;;5053371;28;20032;-70
2021/12/28 11:47:46;;;;;;;27.10;13.63;;;;;;;;;;5053932;28;20024;-70
2021/12/28 11:50:12;;;;;;;26.55;14.10;;;;;;;;;;5071559;28;20024;-70
2021/12/28 11:52:38;;;;;;;22.33;13.02;;;;;;;;;;5071662;28;20032;-70
2021/12/28 11:55:05;;;;;;;24.02;13.50;;;;;;;;;;5071986;28;20032;-70
2021/12/28 11:57:31;;;;;;;22.70;13.25;;;;;;;;;;5072553;28;20024;-70
2021/12/28 11:59:57;;;;;;;24.90;13.65;;;;;;;;;;5071672;28;20043;-70
2021/12/28 12:02:43;;;;;;;26.30;14.18;;;;;;;;;;5053566;28;20032;-70
2021/12/28 12:05:15;;;;;;;24.70;13.55;;;;;;;;;;5071582;28;20024;-69
2021/12/28 12:07:41;;;;;;;32.75;15.55;;;;;;;;;;5050856;28;20440;-69
2021/12/28 12:10:08;;;;;;;24.13;13.20;;;;;;;;;;5071431;28;20074;-69
2021/12/28 12:12:43;;;;;;;22.27;13.30;;;;;;;;;;5071312;28;20024;-70
2021/12/28 12:15:11;;;;;;;27.92;15.82;;;;;;;;;;5070226;28;20149;-70
2021/12/28 12:17:38;;;;;;;29.55;16.40;;;;;;;;;;5071371;28;20028;-70
2021/12/28 12:20:04;;;;;;;26.58;15.00;;;;;;;;;;5071220;28;20029;-68
2021/12/28 12:22:30;;;;;;;29.20;16.20;;;;;;;;;;5071433;28;20066;-70
2021/12/28 12:25:00;;;;;;;29.20;16.40;;;;;;;;;;5070551;28;20386;-69
2021/12/28 12:27:38;;;;;;;34.15;19.55;;;;;;;;;;5071208;28;20024;-70
2021/12/28 12:30:07;;;;;;;34.03;18.75;;;;;;;;;;5071030;28;20025;-70
2021/12/28 12:32:52;;;;;;;35.03;19.83;;;;;;;;;;5071027;28;20029;-70
2021/12/28 12:35:30;;;;;;;33.78;19.40;;;;;;;;;;5069518;28;20465;-70
2021/12/28 12:37:57;;;;;;;39.80;21.25;;;;;;;;;;5070370;28;20032;-70
2021/12/28 12:40:23;;;;;;;41.75;21.70;;;;;;;;;;5070118;28;20551;-70
2021/12/28 12:43:09;;;;;;;41.60;21.90;;;;;;;;;;5070034;28;20036;-70
2021/12/28 12:46:05;;;;;;;38.60;20.60;;;;;;;;;;5074976;28;20024;-70
2021/12/28 12:48:37;;;;;;;41.85;21.83;;;;;;;;;;5042220;28;20033;-70
2021/12/28 12:51:21;;;;;;;43.90;21.48;;;;;;;;;;5062754;28;20036;-71
2021/12/28 12:53:58;;;;;;;42.72;20.77;;;;;;;;;;5074315;28;20135;-70
2021/12/28 12:56:38;;;;;;;37.88;19.95;;;;;;;;;;5075192;28;20382;-70
2021/12/28 12:59:06;;;;;;;38.40;20.75;;;;;;;;;;5074985;28;20407;-70
2021/12/28 13:01:36;;;;;;;38.33;21.08;;;;;;;;;;5074999;28;20103;-70
2021/12/28 13:04:03;;;;;;;36.35;19.98;;;;;;;;;;5074290;28;20021;-71
2021/12/28 13:06:41;;;;;;;33.45;19.80;;;;;;;;;;5090605;28;20048;-70
2021/12/28 13:09:08;;;;;;;34.47;18.27;;;;;;;;;;5090091;28;20035;-70
2021/12/28 13:11:36;;;;;;;37.10;20.08;;;;;;;;;;5084444;28;20032;-70
2021/12/28 13:14:03;;;;;;;34.05;18.17;;;;;;;;;;5072644;28;20058;-70
2021/12/28 13:16:32;;;;;;;36.00;18.27;;;;;;;;;;5073685;28;20417;-70
2021/12/28 13:19:12;;;;;;;35.00;18.40;;;;;;;;;;5088890;28;20028;-70
2021/12/28 13:21:39;;;;;;;31.88;18.30;;;;;;;;;;5073024;28;20024;-70
2021/12/28 13:24:07;;;;;;;31.60;19.13;;;;;;;;;;5073304;28;20020;-70
2021/12/28 13:26:42;;;;;;;32.35;18.08;;;;;;;;;;5075439;28;20024;-70
2021/12/28 13:29:08;;;;;;;32.83;17.73;;;;;;;;;;5091368;28;20035;-71
2021/12/28 13:31:45;;;;;;;27.00;15.90;;;;;;;;;;5066848;28;20020;-71
2021/12/28 13:34:11;;;;;;;30.85;16.55;;;;;;;;;;5050691;28;20064;-71
2021/12/28 13:36:48;;;;;;;30.35;16.33;;;;;;;;;;5054503;28;20028;-72
2021/12/28 13:39:14;;;;;;;28.65;16.27;;;;;;;;;;5054330;28;20031;-71
2021/12/28 13:41:48;;;;;;;30.50;16.13;;;;;;;;;;5036156;28;20025;-70
2021/12/28 13:44:13;;;;;;;24.90;14.55;;;;;;;;;;5053114;28;20022;-71
2021/12/28 13:46:39;;;;;;;28.67;15.43;;;;;;;;;;5053117;28;20083;-71
2021/12/28 13:49:05;;;;;;;26.00;14.65;;;;;;;;;;5053627;28;20045;-71
2021/12/28 13:51:32;;;;;;;25.90;14.77;;;;;;;;;;5067607;28;20055;-71
2021/12/28 13:54:00;;;;;;;25.63;14.80;;;;;;;;;;5072691;28;20021;-71
2021/12/28 13:56:32;;;;;;;27.15;15.30;;;;;;;;;;5073197;28;20043;-69
2021/12/28 13:58:58;;;;;;;28.20;14.00;;;;;;;;;;5073213;28;20017;-69
2021/12/28 14:01:25;;;;;;;22.67;13.13;;;;;;;;;;5073092;28;20120;-70
2021/12/28 14:04:02;;;;;;;20.17;11.55;;;;;;;;;;5071732;28;20032;-70
2021/12/28 14:06:28;;;;;;;17.88;9.75;;;;;;;;;;5058877;28;20021;-70
2021/12/28 14:08:54;;;;;;;19.13;10.35;;;;;;;;;;5059933;28;20036;-71
2021/12/28 14:11:30;;;;;;;18.20;9.88;;;;;;;;;;5051033;28;20040;-69
2021/12/28 14:13:56;;;;;;;18.00;9.95;;;;;;;;;;5056919;28;20021;-70
2021/12/28 14:16:22;;;;;;;16.17;9.85;;;;;;;;;;5073218;28;20338;-70
2021/12/28 14:18:49;;;;;;;22.40;11.35;;;;;;;;;;5073854;28;20029;-70
2021/12/28 14:21:15;;;;;;;16.15;9.82;;;;;;;;;;5074535;28;20107;-70